sensor_id;sensor_type;location;lat;lon;timestamp;temperature;humidity
23629;DHT22;11991;57.150;-2.134;2022-10-28T00:01:16;13.70;99.90
23629;DHT22;11991;57.150;-2.134;2022-10-28T00:03:48;13.70;99.90
23629;DHT22;11991;57.150;-2.134;2022-10-28T00:06:18;13.60;99.90
23629;DHT22;11991;57.150;-2.134;2022-10-28T00:08:46;13.60;99.90
23629;DHT22;11991;57.150;-2.134;2022-10-28T00:11:17;13.60;99.90
23629;DHT22;11991;57.150;-2.134;2022-10-28T00:13:44;13.50;99.90
23629;DHT22;11991;57.150;-2.134;2022-10-28T00:18:39;13.50;99.90
23629;DHT22;11991;57.150;-2.134;2022-10-28T00:21:18;13.50;99.90
23629;DHT22;11991;57.150;-2.134;2022-10-28T00:23:45;13.50;99.90
23629;DHT22;11991;57.150;-2.134;2022-10-28T00:26:15;13.50;99.90
23629;DHT22;11991;57.150;-2.134;2022-10-28T00:28:46;13.40;99.90
23629;DHT22;11991;57.150;-2.134;2022-10-28T00:31:15;13.40;99.90
23629;DHT22;11991;57.150;-2.134;2022-10-28T00:33:43;13.40;99.90
23629;DHT22;11991;57.150;-2.134;2022-10-28T00:36:17;13.40;99.90
23629;DHT22;11991;57.150;-2.134;2022-10-28T00:38:46;13.40;99.90
23629;DHT22;11991;57.150;-2.134;2022-10-28T00:41:20;13.40;99.90
23629;DHT22;11991;57.150;-2.134;2022-10-28T00:43:50;13.40;99.90
23629;DHT22;11991;57.150;-2.134;2022-10-28T00:46:35;13.40;99.90
23629;DHT22;11991;57.150;-2.134;2022-10-28T00:49:11;13.40;99.90
23629;DHT22;11991;57.150;-2.134;2022-10-28T00:51:42;13.40;99.90
23629;DHT22;11991;57.150;-2.134;2022-10-28T00:54:10;13.40;99.90
23629;DHT22;11991;57.150;-2.134;2022-10-28T00:56:42;13.30;99.90
23629;DHT22;11991;57.150;-2.134;2022-10-28T00:59:17;13.30;99.90
23629;DHT22;11991;57.150;-2.134;2022-10-28T01:01:46;13.30;99.90
23629;DHT22;11991;57.150;-2.134;2022-10-28T01:04:13;13.30;99.90
23629;DHT22;11991;57.150;-2.134;2022-10-28T01:06:41;13.30;99.90
23629;DHT22;11991;57.150;-2.134;2022-10-28T01:09:09;13.20;99.90
23629;DHT22;11991;57.150;-2.134;2022-10-28T01:26:22;13.20;99.90
23629;DHT22;11991;57.150;-2.134;2022-10-28T01:41:24;13.30;99.90
23629;DHT22;11991;57.150;-2.134;2022-10-28T01:44:05;13.30;99.90
23629;DHT22;11991;57.150;-2.134;2022-10-28T01:46:34;13.30;99.90
23629;DHT22;11991;57.150;-2.134;2022-10-28T01:51:56;13.40;99.90
23629;DHT22;11991;57.150;-2.134;2022-10-28T01:54:26;13.50;99.90
23629;DHT22;11991;57.150;-2.134;2022-10-28T01:56:56;13.50;99.90
23629;DHT22;11991;57.150;-2.134;2022-10-28T01:59:27;13.50;99.90
23629;DHT22;11991;57.150;-2.134;2022-10-28T02:01:55;13.50;99.90
23629;DHT22;11991;57.150;-2.134;2022-10-28T02:04:23;13.50;99.90
23629;DHT22;11991;57.150;-2.134;2022-10-28T02:06:53;13.60;99.90
23629;DHT22;11991;57.150;-2.134;2022-10-28T02:14:57;13.60;99.90
23629;DHT22;11991;57.150;-2.134;2022-10-28T02:18:09;13.60;99.90
23629;DHT22;11991;57.150;-2.134;2022-10-28T02:20:50;13.60;99.90
23629;DHT22;11991;57.150;-2.134;2022-10-28T02:25:55;13.60;99.90
23629;DHT22;11991;57.150;-2.134;2022-10-28T02:31:32;13.70;99.90
23629;DHT22;11991;57.150;-2.134;2022-10-28T02:34:12;13.70;99.90
23629;DHT22;11991;57.150;-2.134;2022-10-28T02:36:44;13.80;99.90
23629;DHT22;11991;57.150;-2.134;2022-10-28T02:39:13;13.80;99.90
23629;DHT22;11991;57.150;-2.134;2022-10-28T02:41:43;13.80;99.90
23629;DHT22;11991;57.150;-2.134;2022-10-28T02:44:28;13.80;99.90
23629;DHT22;11991;57.150;-2.134;2022-10-28T02:47:00;13.80;99.90
23629;DHT22;11991;57.150;-2.134;2022-10-28T02:49:31;13.80;99.90
23629;DHT22;11991;57.150;-2.134;2022-10-28T02:52:02;13.80;99.90
23629;DHT22;11991;57.150;-2.134;2022-10-28T02:54:49;13.80;99.90
23629;DHT22;11991;57.150;-2.134;2022-10-28T02:57:24;13.70;99.90
23629;DHT22;11991;57.150;-2.134;2022-10-28T02:59:55;13.70;99.90
23629;DHT22;11991;57.150;-2.134;2022-10-28T03:02:23;13.70;99.90
23629;DHT22;11991;57.150;-2.134;2022-10-28T03:04:50;13.70;99.90
23629;DHT22;11991;57.150;-2.134;2022-10-28T03:07:17;13.70;99.90
23629;DHT22;11991;57.150;-2.134;2022-10-28T03:09:45;13.60;99.90
23629;DHT22;11991;57.150;-2.134;2022-10-28T03:12:12;13.60;99.90
23629;DHT22;11991;57.150;-2.134;2022-10-28T03:14:39;13.60;99.90
23629;DHT22;11991;57.150;-2.134;2022-10-28T03:17:06;13.50;99.90
23629;DHT22;11991;57.150;-2.134;2022-10-28T03:19:33;13.50;99.90
23629;DHT22;11991;57.150;-2.134;2022-10-28T03:22:00;13.40;99.90
23629;DHT22;11991;57.150;-2.134;2022-10-28T03:24:28;13.40;99.90
23629;DHT22;11991;57.150;-2.134;2022-10-28T03:26:55;13.40;99.90
23629;DHT22;11991;57.150;-2.134;2022-10-28T03:29:22;13.30;99.90
23629;DHT22;11991;57.150;-2.134;2022-10-28T03:31:49;13.30;99.90
23629;DHT22;11991;57.150;-2.134;2022-10-28T03:34:17;13.20;99.90
23629;DHT22;11991;57.150;-2.134;2022-10-28T03:36:44;13.20;99.90
23629;DHT22;11991;57.150;-2.134;2022-10-28T03:39:13;13.10;99.90
23629;DHT22;11991;57.150;-2.134;2022-10-28T03:41:40;13.10;99.90
23629;DHT22;11991;57.150;-2.134;2022-10-28T03:44:07;13.00;99.90
23629;DHT22;11991;57.150;-2.134;2022-10-28T03:46:35;13.00;99.90
23629;DHT22;11991;57.150;-2.134;2022-10-28T03:49:02;13.00;99.90
23629;DHT22;11991;57.150;-2.134;2022-10-28T03:51:29;12.90;99.90
23629;DHT22;11991;57.150;-2.134;2022-10-28T03:53:56;12.90;99.90
23629;DHT22;11991;57.150;-2.134;2022-10-28T03:56:24;12.90;99.90
23629;DHT22;11991;57.150;-2.134;2022-10-28T03:58:51;12.90;99.90
23629;DHT22;11991;57.150;-2.134;2022-10-28T04:01:23;12.90;99.90
23629;DHT22;11991;57.150;-2.134;2022-10-28T04:03:50;12.90;99.90
23629;DHT22;11991;57.150;-2.134;2022-10-28T04:06:17;12.90;99.90
23629;DHT22;11991;57.150;-2.134;2022-10-28T04:08:45;12.90;99.90
23629;DHT22;11991;57.150;-2.134;2022-10-28T04:11:12;12.90;99.90
23629;DHT22;11991;57.150;-2.134;2022-10-28T04:13:39;13.00;99.90
23629;DHT22;11991;57.150;-2.134;2022-10-28T04:16:06;13.00;99.90
23629;DHT22;11991;57.150;-2.134;2022-10-28T04:18:33;13.00;99.90
23629;DHT22;11991;57.150;-2.134;2022-10-28T04:21:02;13.00;99.90
23629;DHT22;11991;57.150;-2.134;2022-10-28T04:23:29;13.00;99.90
23629;DHT22;11991;57.150;-2.134;2022-10-28T04:25:56;13.00;99.90
23629;DHT22;11991;57.150;-2.134;2022-10-28T04:28:23;13.10;99.90
23629;DHT22;11991;57.150;-2.134;2022-10-28T04:30:51;13.10;99.90
23629;DHT22;11991;57.150;-2.134;2022-10-28T04:33:18;13.10;99.90
23629;DHT22;11991;57.150;-2.134;2022-10-28T04:35:45;13.10;99.90
23629;DHT22;11991;57.150;-2.134;2022-10-28T04:38:12;13.00;99.90
23629;DHT22;11991;57.150;-2.134;2022-10-28T04:40:41;13.00;99.90
23629;DHT22;11991;57.150;-2.134;2022-10-28T04:43:08;13.00;99.90
23629;DHT22;11991;57.150;-2.134;2022-10-28T04:45:37;13.00;99.90
23629;DHT22;11991;57.150;-2.134;2022-10-28T04:48:05;13.00;99.90
23629;DHT22;11991;57.150;-2.134;2022-10-28T04:50:32;12.90;99.90
23629;DHT22;11991;57.150;-2.134;2022-10-28T04:53:09;12.90;99.90
23629;DHT22;11991;57.150;-2.134;2022-10-28T04:55:36;12.90;99.90
23629;DHT22;11991;57.150;-2.134;2022-10-28T04:58:03;12.80;99.90
23629;DHT22;11991;57.150;-2.134;2022-10-28T05:00:31;12.80;99.90
23629;DHT22;11991;57.150;-2.134;2022-10-28T05:03:00;12.80;99.90
23629;DHT22;11991;57.150;-2.134;2022-10-28T05:05:28;12.80;99.90
23629;DHT22;11991;57.150;-2.134;2022-10-28T05:07:55;12.70;99.90
23629;DHT22;11991;57.150;-2.134;2022-10-28T05:10:23;12.70;99.90
23629;DHT22;11991;57.150;-2.134;2022-10-28T05:12:50;12.70;99.90
23629;DHT22;11991;57.150;-2.134;2022-10-28T05:15:18;12.60;99.90
23629;DHT22;11991;57.150;-2.134;2022-10-28T05:17:45;12.60;99.90
23629;DHT22;11991;57.150;-2.134;2022-10-28T05:20:15;12.60;99.90
23629;DHT22;11991;57.150;-2.134;2022-10-28T05:22:51;12.60;99.90
23629;DHT22;11991;57.150;-2.134;2022-10-28T05:25:20;12.50;99.90
23629;DHT22;11991;57.150;-2.134;2022-10-28T05:28:36;12.50;99.90
23629;DHT22;11991;57.150;-2.134;2022-10-28T05:31:04;12.50;99.90
23629;DHT22;11991;57.150;-2.134;2022-10-28T05:33:31;12.50;99.90
23629;DHT22;11991;57.150;-2.134;2022-10-28T05:35:59;12.50;99.90
23629;DHT22;11991;57.150;-2.134;2022-10-28T05:38:27;12.50;99.90
23629;DHT22;11991;57.150;-2.134;2022-10-28T05:40:54;12.50;99.90
23629;DHT22;11991;57.150;-2.134;2022-10-28T05:43:21;12.50;99.90
23629;DHT22;11991;57.150;-2.134;2022-10-28T05:45:54;12.50;99.90
23629;DHT22;11991;57.150;-2.134;2022-10-28T05:48:23;12.50;99.90
23629;DHT22;11991;57.150;-2.134;2022-10-28T05:50:50;12.50;99.90
23629;DHT22;11991;57.150;-2.134;2022-10-28T05:53:17;12.60;99.90
23629;DHT22;11991;57.150;-2.134;2022-10-28T05:55:44;12.60;99.90
23629;DHT22;11991;57.150;-2.134;2022-10-28T05:58:14;12.60;99.90
23629;DHT22;11991;57.150;-2.134;2022-10-28T06:00:41;12.60;99.90
23629;DHT22;11991;57.150;-2.134;2022-10-28T06:03:10;12.70;99.90
23629;DHT22;11991;57.150;-2.134;2022-10-28T06:05:40;12.70;99.90
23629;DHT22;11991;57.150;-2.134;2022-10-28T06:08:10;12.70;99.90
23629;DHT22;11991;57.150;-2.134;2022-10-28T06:10:38;12.80;99.90
23629;DHT22;11991;57.150;-2.134;2022-10-28T06:13:06;12.80;99.90
23629;DHT22;11991;57.150;-2.134;2022-10-28T06:15:34;12.80;99.90
23629;DHT22;11991;57.150;-2.134;2022-10-28T06:18:01;12.80;99.90
23629;DHT22;11991;57.150;-2.134;2022-10-28T06:20:28;12.80;99.90
23629;DHT22;11991;57.150;-2.134;2022-10-28T06:22:56;12.80;99.90
23629;DHT22;11991;57.150;-2.134;2022-10-28T06:25:24;12.80;99.90
23629;DHT22;11991;57.150;-2.134;2022-10-28T06:27:57;12.80;99.90
23629;DHT22;11991;57.150;-2.134;2022-10-28T06:30:26;12.80;99.90
23629;DHT22;11991;57.150;-2.134;2022-10-28T06:32:57;12.80;99.90
23629;DHT22;11991;57.150;-2.134;2022-10-28T06:35:24;12.70;99.90
23629;DHT22;11991;57.150;-2.134;2022-10-28T06:37:55;12.70;99.90
23629;DHT22;11991;57.150;-2.134;2022-10-28T06:40:24;12.70;99.90
23629;DHT22;11991;57.150;-2.134;2022-10-28T06:43:05;12.60;99.90
23629;DHT22;11991;57.150;-2.134;2022-10-28T06:45:33;12.60;99.90
23629;DHT22;11991;57.150;-2.134;2022-10-28T06:48:03;12.60;99.90
23629;DHT22;11991;57.150;-2.134;2022-10-28T06:50:33;12.60;99.90
23629;DHT22;11991;57.150;-2.134;2022-10-28T06:53:02;12.60;99.90
23629;DHT22;11991;57.150;-2.134;2022-10-28T06:55:30;12.60;99.90
23629;DHT22;11991;57.150;-2.134;2022-10-28T06:58:01;12.60;99.90
23629;DHT22;11991;57.150;-2.134;2022-10-28T07:00:30;12.60;99.90
23629;DHT22;11991;57.150;-2.134;2022-10-28T07:02:57;12.60;99.90
23629;DHT22;11991;57.150;-2.134;2022-10-28T07:05:26;12.60;99.90
23629;DHT22;11991;57.150;-2.134;2022-10-28T07:07:53;12.70;99.90
23629;DHT22;11991;57.150;-2.134;2022-10-28T07:10:21;12.70;99.90
23629;DHT22;11991;57.150;-2.134;2022-10-28T07:12:50;12.70;99.90
23629;DHT22;11991;57.150;-2.134;2022-10-28T07:15:18;12.70;99.90
23629;DHT22;11991;57.150;-2.134;2022-10-28T07:17:51;12.70;99.90
23629;DHT22;11991;57.150;-2.134;2022-10-28T07:20:19;12.70;99.90
23629;DHT22;11991;57.150;-2.134;2022-10-28T07:22:46;12.70;99.90
23629;DHT22;11991;57.150;-2.134;2022-10-28T07:25:14;12.70;99.90
23629;DHT22;11991;57.150;-2.134;2022-10-28T07:27:41;12.70;99.90
23629;DHT22;11991;57.150;-2.134;2022-10-28T07:30:09;12.70;99.90
23629;DHT22;11991;57.150;-2.134;2022-10-28T07:32:36;12.70;99.90
23629;DHT22;11991;57.150;-2.134;2022-10-28T07:35:04;12.70;99.90
23629;DHT22;11991;57.150;-2.134;2022-10-28T07:37:31;12.70;99.90
23629;DHT22;11991;57.150;-2.134;2022-10-28T07:39:58;12.70;99.90
23629;DHT22;11991;57.150;-2.134;2022-10-28T07:42:25;12.80;99.90
23629;DHT22;11991;57.150;-2.134;2022-10-28T07:44:52;12.80;99.90
23629;DHT22;11991;57.150;-2.134;2022-10-28T07:47:19;12.80;99.90
23629;DHT22;11991;57.150;-2.134;2022-10-28T07:49:47;12.80;99.90
23629;DHT22;11991;57.150;-2.134;2022-10-28T07:52:14;12.80;99.90
23629;DHT22;11991;57.150;-2.134;2022-10-28T07:54:42;12.80;99.90
23629;DHT22;11991;57.150;-2.134;2022-10-28T07:57:09;12.90;99.90
23629;DHT22;11991;57.150;-2.134;2022-10-28T07:59:36;12.80;99.90
23629;DHT22;11991;57.150;-2.134;2022-10-28T08:02:05;12.80;99.90
23629;DHT22;11991;57.150;-2.134;2022-10-28T08:04:32;12.90;99.90
23629;DHT22;11991;57.150;-2.134;2022-10-28T08:06:59;12.90;99.90
23629;DHT22;11991;57.150;-2.134;2022-10-28T08:09:26;12.90;99.90
23629;DHT22;11991;57.150;-2.134;2022-10-28T08:11:55;12.90;99.90
23629;DHT22;11991;57.150;-2.134;2022-10-28T08:14:23;12.90;99.90
23629;DHT22;11991;57.150;-2.134;2022-10-28T08:16:50;13.00;99.90
23629;DHT22;11991;57.150;-2.134;2022-10-28T08:19:17;13.00;99.90
23629;DHT22;11991;57.150;-2.134;2022-10-28T08:21:45;13.00;99.90
23629;DHT22;11991;57.150;-2.134;2022-10-28T08:24:13;13.00;99.90
23629;DHT22;11991;57.150;-2.134;2022-10-28T08:26:40;13.00;99.90
23629;DHT22;11991;57.150;-2.134;2022-10-28T08:29:09;13.00;99.90
23629;DHT22;11991;57.150;-2.134;2022-10-28T08:31:38;13.00;99.90
23629;DHT22;11991;57.150;-2.134;2022-10-28T08:34:06;13.10;99.90
23629;DHT22;11991;57.150;-2.134;2022-10-28T08:36:33;13.10;99.90
23629;DHT22;11991;57.150;-2.134;2022-10-28T08:39:01;13.10;99.90
23629;DHT22;11991;57.150;-2.134;2022-10-28T08:41:36;13.10;99.90
23629;DHT22;11991;57.150;-2.134;2022-10-28T08:50:09;13.20;99.90
23629;DHT22;11991;57.150;-2.134;2022-10-28T08:52:40;13.20;99.90
23629;DHT22;11991;57.150;-2.134;2022-10-28T08:58:16;13.20;99.90
23629;DHT22;11991;57.150;-2.134;2022-10-28T09:00:50;13.20;99.90
23629;DHT22;11991;57.150;-2.134;2022-10-28T09:03:24;13.20;99.90
23629;DHT22;11991;57.150;-2.134;2022-10-28T09:06:03;13.20;99.90
23629;DHT22;11991;57.150;-2.134;2022-10-28T09:08:34;13.20;99.90
23629;DHT22;11991;57.150;-2.134;2022-10-28T09:13:48;13.20;99.90
23629;DHT22;11991;57.150;-2.134;2022-10-28T09:16:46;13.30;99.90
23629;DHT22;11991;57.150;-2.134;2022-10-28T09:21:52;13.30;99.90
23629;DHT22;11991;57.150;-2.134;2022-10-28T09:24:52;13.30;99.90
23629;DHT22;11991;57.150;-2.134;2022-10-28T09:35:57;13.40;99.90
23629;DHT22;11991;57.150;-2.134;2022-10-28T09:38:35;13.40;99.90
23629;DHT22;11991;57.150;-2.134;2022-10-28T09:46:30;13.40;99.90
23629;DHT22;11991;57.150;-2.134;2022-10-28T09:49:07;13.40;99.90
23629;DHT22;11991;57.150;-2.134;2022-10-28T09:54:04;13.40;99.90
23629;DHT22;11991;57.150;-2.134;2022-10-28T09:56:31;13.40;99.90
23629;DHT22;11991;57.150;-2.134;2022-10-28T09:59:00;13.40;99.90
23629;DHT22;11991;57.150;-2.134;2022-10-28T10:01:34;13.40;99.90
23629;DHT22;11991;57.150;-2.134;2022-10-28T10:04:04;13.40;99.90
23629;DHT22;11991;57.150;-2.134;2022-10-28T10:06:39;13.40;99.90
23629;DHT22;11991;57.150;-2.134;2022-10-28T10:09:19;13.40;99.90
23629;DHT22;11991;57.150;-2.134;2022-10-28T10:11:48;13.40;99.90
23629;DHT22;11991;57.150;-2.134;2022-10-28T10:14:21;13.40;99.90
23629;DHT22;11991;57.150;-2.134;2022-10-28T10:16:55;13.40;99.90
23629;DHT22;11991;57.150;-2.134;2022-10-28T10:19:24;13.40;99.90
23629;DHT22;11991;57.150;-2.134;2022-10-28T10:21:52;13.40;99.90
23629;DHT22;11991;57.150;-2.134;2022-10-28T10:26:52;13.40;99.90
23629;DHT22;11991;57.150;-2.134;2022-10-28T10:29:20;13.40;99.90
23629;DHT22;11991;57.150;-2.134;2022-10-28T10:32:13;13.40;99.90
23629;DHT22;11991;57.150;-2.134;2022-10-28T10:35:05;13.50;
23629;DHT22;11991;57.150;-2.134;2022-10-28T10:37:33;13.50;99.90
23629;DHT22;11991;57.150;-2.134;2022-10-28T10:42:34;13.50;99.90
23629;DHT22;11991;57.150;-2.134;2022-10-28T10:45:26;13.50;99.90
23629;DHT22;11991;57.150;-2.134;2022-10-28T10:48:13;13.50;99.90
23629;DHT22;11991;57.150;-2.134;2022-10-28T10:50:46;13.60;99.90
23629;DHT22;11991;57.150;-2.134;2022-10-28T10:55:56;13.60;99.90
23629;DHT22;11991;57.150;-2.134;2022-10-28T10:58:27;13.70;99.90
23629;DHT22;11991;57.150;-2.134;2022-10-28T11:01:24;13.70;99.90
23629;DHT22;11991;57.150;-2.134;2022-10-28T11:04:17;13.70;99.90
23629;DHT22;11991;57.150;-2.134;2022-10-28T11:06:50;13.80;99.90
23629;DHT22;11991;57.150;-2.134;2022-10-28T11:09:29;13.80;99.90
23629;DHT22;11991;57.150;-2.134;2022-10-28T11:11:57;13.90;99.90
23629;DHT22;11991;57.150;-2.134;2022-10-28T11:14:27;13.90;99.90
23629;DHT22;11991;57.150;-2.134;2022-10-28T11:17:00;13.90;99.90
23629;DHT22;11991;57.150;-2.134;2022-10-28T11:36:39;14.20;99.90
23629;DHT22;11991;57.150;-2.134;2022-10-28T11:45:22;14.20;99.90
23629;DHT22;11991;57.150;-2.134;2022-10-28T11:51:05;14.30;99.90
23629;DHT22;11991;57.150;-2.134;2022-10-28T11:56:22;14.50;99.90
23629;DHT22;11991;57.150;-2.134;2022-10-28T12:01:39;14.60;99.90
23629;DHT22;11991;57.150;-2.134;2022-10-28T12:06:52;14.70;99.90
23629;DHT22;11991;57.150;-2.134;2022-10-28T12:10:06;14.60;99.90
23629;DHT22;11991;57.150;-2.134;2022-10-28T12:20:26;14.50;99.90
23629;DHT22;11991;57.150;-2.134;2022-10-28T12:22:59;14.50;99.90
23629;DHT22;11991;57.150;-2.134;2022-10-28T12:25:34;14.50;99.90
23629;DHT22;11991;57.150;-2.134;2022-10-28T12:28:32;14.50;99.90
23629;DHT22;11991;57.150;-2.134;2022-10-28T12:31:00;14.50;99.90
23629;DHT22;11991;57.150;-2.134;2022-10-28T12:33:36;14.50;99.90
23629;DHT22;11991;57.150;-2.134;2022-10-28T12:38:45;14.60;99.90
23629;DHT22;11991;57.150;-2.134;2022-10-28T12:41:22;14.60;99.90
23629;DHT22;11991;57.150;-2.134;2022-10-28T12:44:10;14.70;99.90
23629;DHT22;11991;57.150;-2.134;2022-10-28T12:58:03;14.90;99.90
23629;DHT22;11991;57.150;-2.134;2022-10-28T13:00:36;15.00;99.90
23629;DHT22;11991;57.150;-2.134;2022-10-28T13:03:11;15.00;99.90
23629;DHT22;11991;57.150;-2.134;2022-10-28T13:05:43;15.00;99.90
23629;DHT22;11991;57.150;-2.134;2022-10-28T13:08:41;15.00;99.90
23629;DHT22;11991;57.150;-2.134;2022-10-28T13:13:59;15.10;99.90
23629;DHT22;11991;57.150;-2.134;2022-10-28T13:28:04;15.00;99.90
23629;DHT22;11991;57.150;-2.134;2022-10-28T13:30:32;15.10;99.90
23629;DHT22;11991;57.150;-2.134;2022-10-28T13:33:07;15.10;99.90
23629;DHT22;11991;57.150;-2.134;2022-10-28T13:35:36;15.20;99.90
23629;DHT22;11991;57.150;-2.134;2022-10-28T13:38:09;15.20;99.90
23629;DHT22;11991;57.150;-2.134;2022-10-28T13:43:04;15.30;99.90
23629;DHT22;11991;57.150;-2.134;2022-10-28T13:45:50;15.30;99.90
23629;DHT22;11991;57.150;-2.134;2022-10-28T13:53:39;15.30;99.90
23629;DHT22;11991;57.150;-2.134;2022-10-28T14:04:38;15.40;99.90
23629;DHT22;11991;57.150;-2.134;2022-10-28T14:09:39;15.40;99.90
23629;DHT22;11991;57.150;-2.134;2022-10-28T14:12:31;15.40;99.90
23629;DHT22;11991;57.150;-2.134;2022-10-28T14:17:52;15.40;99.90
23629;DHT22;11991;57.150;-2.134;2022-10-28T14:26:05;15.30;99.90
23629;DHT22;11991;57.150;-2.134;2022-10-28T14:33:40;15.20;99.90
23629;DHT22;11991;57.150;-2.134;2022-10-28T14:47:56;15.00;99.90
23629;DHT22;11991;57.150;-2.134;2022-10-28T14:50:49;14.90;99.90
23629;DHT22;11991;57.150;-2.134;2022-10-28T14:53:28;14.90;99.90
23629;DHT22;11991;57.150;-2.134;2022-10-28T14:56:33;14.90;99.90
23629;DHT22;11991;57.150;-2.134;2022-10-28T14:59:25;14.90;99.90
23629;DHT22;11991;57.150;-2.134;2022-10-28T15:02:01;14.80;99.90
23629;DHT22;11991;57.150;-2.134;2022-10-28T15:04:30;14.80;99.90
23629;DHT22;11991;57.150;-2.134;2022-10-28T15:06:57;14.80;99.90
23629;DHT22;11991;57.150;-2.134;2022-10-28T15:09:30;14.70;99.90
23629;DHT22;11991;57.150;-2.134;2022-10-28T15:12:10;14.70;99.90
23629;DHT22;11991;57.150;-2.134;2022-10-28T15:14:40;14.70;99.90
23629;DHT22;11991;57.150;-2.134;2022-10-28T15:19:52;14.60;99.90
23629;DHT22;11991;57.150;-2.134;2022-10-28T15:22:29;14.60;99.90
23629;DHT22;11991;57.150;-2.134;2022-10-28T15:25:00;14.50;99.90
23629;DHT22;11991;57.150;-2.134;2022-10-28T15:27:33;14.50;99.90
23629;DHT22;11991;57.150;-2.134;2022-10-28T15:30:06;14.50;99.90
23629;DHT22;11991;57.150;-2.134;2022-10-28T15:32:39;14.50;99.90
23629;DHT22;11991;57.150;-2.134;2022-10-28T15:35:44;14.50;99.90
23629;DHT22;11991;57.150;-2.134;2022-10-28T15:40:48;14.40;99.90
23629;DHT22;11991;57.150;-2.134;2022-10-28T15:43:33;14.40;99.90
23629;DHT22;11991;57.150;-2.134;2022-10-28T15:46:10;14.30;99.90
23629;DHT22;11991;57.150;-2.134;2022-10-28T15:48:41;14.30;99.90
23629;DHT22;11991;57.150;-2.134;2022-10-28T16:00:52;14.00;99.90
23629;DHT22;11991;57.150;-2.134;2022-10-28T16:03:39;14.00;99.90
23629;DHT22;11991;57.150;-2.134;2022-10-28T16:06:20;13.90;99.90
23629;DHT22;11991;57.150;-2.134;2022-10-28T16:09:01;13.90;99.90
23629;DHT22;11991;57.150;-2.134;2022-10-28T16:11:31;13.80;99.90
23629;DHT22;11991;57.150;-2.134;2022-10-28T16:14:04;13.80;99.90
23629;DHT22;11991;57.150;-2.134;2022-10-28T16:16:33;13.80;99.90
23629;DHT22;11991;57.150;-2.134;2022-10-28T16:19:11;13.70;99.90
23629;DHT22;11991;57.150;-2.134;2022-10-28T16:21:43;13.70;99.90
23629;DHT22;11991;57.150;-2.134;2022-10-28T16:24:10;13.60;99.90
23629;DHT22;11991;57.150;-2.134;2022-10-28T16:26:37;13.60;99.90
23629;DHT22;11991;57.150;-2.134;2022-10-28T16:29:05;13.50;99.90
23629;DHT22;11991;57.150;-2.134;2022-10-28T16:31:32;13.50;99.90
23629;DHT22;11991;57.150;-2.134;2022-10-28T16:34:00;13.40;99.90
23629;DHT22;11991;57.150;-2.134;2022-10-28T16:36:27;13.40;99.90
23629;DHT22;11991;57.150;-2.134;2022-10-28T16:38:56;13.40;99.90
23629;DHT22;11991;57.150;-2.134;2022-10-28T16:41:23;13.30;99.90
23629;DHT22;11991;57.150;-2.134;2022-10-28T16:43:50;13.30;99.90
23629;DHT22;11991;57.150;-2.134;2022-10-28T16:46:18;13.20;99.90
23629;DHT22;11991;57.150;-2.134;2022-10-28T16:48:45;13.20;99.90
23629;DHT22;11991;57.150;-2.134;2022-10-28T16:51:16;13.20;99.90
23629;DHT22;11991;57.150;-2.134;2022-10-28T16:53:44;13.20;99.90
23629;DHT22;11991;57.150;-2.134;2022-10-28T16:56:17;13.20;99.90
23629;DHT22;11991;57.150;-2.134;2022-10-28T16:58:44;13.10;99.90
23629;DHT22;11991;57.150;-2.134;2022-10-28T17:01:15;13.10;99.90
23629;DHT22;11991;57.150;-2.134;2022-10-28T17:03:43;13.10;99.90
23629;DHT22;11991;57.150;-2.134;2022-10-28T17:06:10;13.10;99.90
23629;DHT22;11991;57.150;-2.134;2022-10-28T17:08:38;13.00;99.90
23629;DHT22;11991;57.150;-2.134;2022-10-28T17:11:25;13.00;99.90
23629;DHT22;11991;57.150;-2.134;2022-10-28T17:13:52;12.90;99.90
23629;DHT22;11991;57.150;-2.134;2022-10-28T17:16:20;12.90;99.90
23629;DHT22;11991;57.150;-2.134;2022-10-28T17:18:50;12.90;99.90
23629;DHT22;11991;57.150;-2.134;2022-10-28T17:21:17;12.90;99.90
23629;DHT22;11991;57.150;-2.134;2022-10-28T17:23:45;12.90;99.90
23629;DHT22;11991;57.150;-2.134;2022-10-28T17:26:12;12.80;99.90
23629;DHT22;11991;57.150;-2.134;2022-10-28T17:28:39;12.80;99.90
23629;DHT22;11991;57.150;-2.134;2022-10-28T17:31:07;12.90;99.90
23629;DHT22;11991;57.150;-2.134;2022-10-28T17:33:35;12.90;99.90
23629;DHT22;11991;57.150;-2.134;2022-10-28T17:36:03;12.90;99.90
23629;DHT22;11991;57.150;-2.134;2022-10-28T17:38:32;12.90;99.90
23629;DHT22;11991;57.150;-2.134;2022-10-28T17:40:59;12.90;99.90
23629;DHT22;11991;57.150;-2.134;2022-10-28T17:43:26;12.90;99.90
23629;DHT22;11991;57.150;-2.134;2022-10-28T17:46:03;12.90;99.90
23629;DHT22;11991;57.150;-2.134;2022-10-28T17:48:30;12.90;99.90
23629;DHT22;11991;57.150;-2.134;2022-10-28T17:50:57;12.90;99.90
23629;DHT22;11991;57.150;-2.134;2022-10-28T17:53:25;12.90;99.90
23629;DHT22;11991;57.150;-2.134;2022-10-28T17:56:00;12.90;99.90
23629;DHT22;11991;57.150;-2.134;2022-10-28T17:58:27;12.90;99.90
23629;DHT22;11991;57.150;-2.134;2022-10-28T18:00:56;12.90;99.90
23629;DHT22;11991;57.150;-2.134;2022-10-28T18:03:24;12.80;99.90
23629;DHT22;11991;57.150;-2.134;2022-10-28T18:05:52;12.80;99.90
23629;DHT22;11991;57.150;-2.134;2022-10-28T18:08:19;12.80;99.90
23629;DHT22;11991;57.150;-2.134;2022-10-28T18:10:54;12.80;99.90
23629;DHT22;11991;57.150;-2.134;2022-10-28T18:13:29;12.70;99.90
23629;DHT22;11991;57.150;-2.134;2022-10-28T18:16:14;12.70;99.90
23629;DHT22;11991;57.150;-2.134;2022-10-28T18:18:42;12.70;99.90
23629;DHT22;11991;57.150;-2.134;2022-10-28T18:21:10;12.60;99.90
23629;DHT22;11991;57.150;-2.134;2022-10-28T18:23:38;12.60;99.90
23629;DHT22;11991;57.150;-2.134;2022-10-28T18:26:10;12.60;99.90
23629;DHT22;11991;57.150;-2.134;2022-10-28T18:29:04;12.60;99.90
23629;DHT22;11991;57.150;-2.134;2022-10-28T18:31:32;12.60;99.90
23629;DHT22;11991;57.150;-2.134;2022-10-28T18:34:00;12.60;99.90
23629;DHT22;11991;57.150;-2.134;2022-10-28T18:36:29;12.50;99.90
23629;DHT22;11991;57.150;-2.134;2022-10-28T18:39:05;12.50;99.90
23629;DHT22;11991;57.150;-2.134;2022-10-28T18:41:35;12.50;99.90
23629;DHT22;11991;57.150;-2.134;2022-10-28T18:44:04;12.50;99.90
23629;DHT22;11991;57.150;-2.134;2022-10-28T18:46:34;12.50;99.90
23629;DHT22;11991;57.150;-2.134;2022-10-28T18:49:03;12.50;99.90
23629;DHT22;11991;57.150;-2.134;2022-10-28T18:51:32;12.50;99.90
23629;DHT22;11991;57.150;-2.134;2022-10-28T18:53:59;12.50;99.90
23629;DHT22;11991;57.150;-2.134;2022-10-28T18:56:27;12.50;99.90
23629;DHT22;11991;57.150;-2.134;2022-10-28T18:58:56;12.50;99.90
23629;DHT22;11991;57.150;-2.134;2022-10-28T19:01:25;12.50;99.90
23629;DHT22;11991;57.150;-2.134;2022-10-28T19:03:55;12.50;99.90
23629;DHT22;11991;57.150;-2.134;2022-10-28T19:06:24;12.40;99.90
23629;DHT22;11991;57.150;-2.134;2022-10-28T19:08:53;12.50;99.90
23629;DHT22;11991;57.150;-2.134;2022-10-28T19:11:22;12.50;99.90
23629;DHT22;11991;57.150;-2.134;2022-10-28T19:13:51;12.50;99.90